sensor_id;sensor_type;location;lat;lon;timestamp;P1;durP1;ratioP1;P2;durP2;ratioP2
36827;SDS011;22766;48.042;11.192;2023-05-23T00:00:12;10.32;;;6.10;;
36827;SDS011;22766;48.042;11.192;2023-05-23T00:02:41;12.02;;;6.22;;
36827;SDS011;22766;48.042;11.192;2023-05-23T00:05:09;9.63;;;6.30;;
36827;SDS011;22766;48.042;11.192;2023-05-23T00:07:35;8.05;;;5.22;;
36827;SDS011;22766;48.042;11.192;2023-05-23T00:10:02;9.18;;;5.35;;
36827;SDS011;22766;48.042;11.192;2023-05-23T00:12:29;7.40;;;5.07;;
36827;SDS011;22766;48.042;11.192;2023-05-23T00:14:56;8.95;;;5.88;;
36827;SDS011;22766;48.042;11.192;2023-05-23T00:17:23;10.15;;;5.53;;
36827;SDS011;22766;48.042;11.192;2023-05-23T00:19:51;7.18;;;5.43;;
36827;SDS011;22766;48.042;11.192;2023-05-23T00:22:18;7.88;;;5.47;;
36827;SDS011;22766;48.042;11.192;2023-05-23T00:24:45;9.63;;;5.18;;
36827;SDS011;22766;48.042;11.192;2023-05-23T00:27:12;9.82;;;5.25;;
36827;SDS011;22766;48.042;11.192;2023-05-23T00:29:38;8.30;;;5.43;;
36827;SDS011;22766;48.042;11.192;2023-05-23T00:32:05;8.48;;;5.30;;
36827;SDS011;22766;48.042;11.192;2023-05-23T00:34:32;9.15;;;6.00;;
36827;SDS011;22766;48.042;11.192;2023-05-23T00:36:59;9.10;;;5.25;;
36827;SDS011;22766;48.042;11.192;2023-05-23T00:39:27;9.55;;;5.68;;
36827;SDS011;22766;48.042;11.192;2023-05-23T00:41:54;8.80;;;5.55;;
36827;SDS011;22766;48.042;11.192;2023-05-23T00:44:21;10.15;;;6.22;;
36827;SDS011;22766;48.042;11.192;2023-05-23T00:46:50;8.70;;;5.72;;
36827;SDS011;22766;48.042;11.192;2023-05-23T00:49:18;10.50;;;6.03;;
36827;SDS011;22766;48.042;11.192;2023-05-23T00:51:46;9.63;;;5.68;;
36827;SDS011;22766;48.042;11.192;2023-05-23T00:54:16;7.85;;;5.60;;
36827;SDS011;22766;48.042;11.192;2023-05-23T00:56:46;9.45;;;6.28;;
36827;SDS011;22766;48.042;11.192;2023-05-23T00:59:14;8.93;;;6.03;;
36827;SDS011;22766;48.042;11.192;2023-05-23T01:01:41;12.70;;;6.38;;
36827;SDS011;22766;48.042;11.192;2023-05-23T01:04:13;10.85;;;6.35;;
36827;SDS011;22766;48.042;11.192;2023-05-23T01:06:42;10.50;;;7.03;;
36827;SDS011;22766;48.042;11.192;2023-05-23T01:09:13;10.30;;;6.53;;
36827;SDS011;22766;48.042;11.192;2023-05-23T01:11:44;14.68;;;7.82;;
36827;SDS011;22766;48.042;11.192;2023-05-23T01:14:18;8.90;;;5.93;;
36827;SDS011;22766;48.042;11.192;2023-05-23T01:16:52;9.77;;;6.35;;
36827;SDS011;22766;48.042;11.192;2023-05-23T01:28:26;11.20;;;6.80;;
36827;SDS011;22766;48.042;11.192;2023-05-23T01:30:57;9.27;;;6.30;;
36827;SDS011;22766;48.042;11.192;2023-05-23T01:33:27;12.50;;;7.32;;
36827;SDS011;22766;48.042;11.192;2023-05-23T01:35:55;12.05;;;6.85;;
36827;SDS011;22766;48.042;11.192;2023-05-23T01:38:26;11.35;;;7.05;;
36827;SDS011;22766;48.042;11.192;2023-05-23T01:40:53;13.23;;;7.90;;
36827;SDS011;22766;48.042;11.192;2023-05-23T01:43:20;13.52;;;7.53;;
36827;SDS011;22766;48.042;11.192;2023-05-23T01:45:53;12.05;;;7.05;;
36827;SDS011;22766;48.042;11.192;2023-05-23T01:48:22;13.35;;;7.50;;
36827;SDS011;22766;48.042;11.192;2023-05-23T01:50:52;18.92;;;7.75;;
36827;SDS011;22766;48.042;11.192;2023-05-23T01:53:20;13.57;;;8.50;;
36827;SDS011;22766;48.042;11.192;2023-05-23T01:55:48;13.40;;;7.50;;
36827;SDS011;22766;48.042;11.192;2023-05-23T01:58:16;11.70;;;7.35;;
36827;SDS011;22766;48.042;11.192;2023-05-23T02:00:44;11.93;;;6.80;;
36827;SDS011;22766;48.042;11.192;2023-05-23T02:03:11;12.32;;;7.15;;
36827;SDS011;22766;48.042;11.192;2023-05-23T02:05:38;12.48;;;7.63;;
36827;SDS011;22766;48.042;11.192;2023-05-23T02:08:06;12.05;;;7.78;;
36827;SDS011;22766;48.042;11.192;2023-05-23T02:10:32;11.23;;;6.82;;
36827;SDS011;22766;48.042;11.192;2023-05-23T02:12:59;13.43;;;7.68;;
36827;SDS011;22766;48.042;11.192;2023-05-23T02:15:27;15.82;;;8.20;;
36827;SDS011;22766;48.042;11.192;2023-05-23T02:17:54;11.85;;;8.18;;
36827;SDS011;22766;48.042;11.192;2023-05-23T02:20:21;12.38;;;7.43;;
36827;SDS011;22766;48.042;11.192;2023-05-23T02:22:47;13.45;;;7.85;;
36827;SDS011;22766;48.042;11.192;2023-05-23T02:25:14;13.35;;;7.45;;
36827;SDS011;22766;48.042;11.192;2023-05-23T02:27:41;15.38;;;7.43;;
36827;SDS011;22766;48.042;11.192;2023-05-23T02:30:08;12.27;;;6.90;;
36827;SDS011;22766;48.042;11.192;2023-05-23T02:32:35;12.90;;;8.00;;
36827;SDS011;22766;48.042;11.192;2023-05-23T02:35:03;14.60;;;8.40;;
36827;SDS011;22766;48.042;11.192;2023-05-23T02:37:31;12.77;;;8.27;;
36827;SDS011;22766;48.042;11.192;2023-05-23T02:39:58;13.93;;;8.43;;
36827;SDS011;22766;48.042;11.192;2023-05-23T02:42:24;14.52;;;8.02;;
36827;SDS011;22766;48.042;11.192;2023-05-23T02:44:52;12.95;;;7.75;;
36827;SDS011;22766;48.042;11.192;2023-05-23T02:47:19;10.50;;;7.57;;
36827;SDS011;22766;48.042;11.192;2023-05-23T02:49:47;14.30;;;7.85;;
36827;SDS011;22766;48.042;11.192;2023-05-23T02:52:14;15.13;;;8.85;;
36827;SDS011;22766;48.042;11.192;2023-05-23T02:54:41;14.70;;;8.65;;
36827;SDS011;22766;48.042;11.192;2023-05-23T02:57:08;13.77;;;9.13;;
36827;SDS011;22766;48.042;11.192;2023-05-23T02:59:37;16.63;;;8.82;;
36827;SDS011;22766;48.042;11.192;2023-05-23T03:02:04;15.18;;;8.00;;
36827;SDS011;22766;48.042;11.192;2023-05-23T03:04:31;16.65;;;8.55;;
36827;SDS011;22766;48.042;11.192;2023-05-23T03:06:58;17.13;;;8.93;;
36827;SDS011;22766;48.042;11.192;2023-05-23T03:09:25;13.02;;;8.68;;
36827;SDS011;22766;48.042;11.192;2023-05-23T03:11:52;13.07;;;8.23;;
36827;SDS011;22766;48.042;11.192;2023-05-23T03:14:19;14.27;;;8.07;;
36827;SDS011;22766;48.042;11.192;2023-05-23T03:16:47;14.65;;;8.52;;
36827;SDS011;22766;48.042;11.192;2023-05-23T03:19:14;14.50;;;7.85;;
36827;SDS011;22766;48.042;11.192;2023-05-23T03:21:41;15.98;;;8.60;;
36827;SDS011;22766;48.042;11.192;2023-05-23T03:24:09;12.70;;;8.32;;
36827;SDS011;22766;48.042;11.192;2023-05-23T03:26:36;13.38;;;8.63;;
36827;SDS011;22766;48.042;11.192;2023-05-23T03:29:02;13.45;;;8.93;;
36827;SDS011;22766;48.042;11.192;2023-05-23T03:31:29;14.05;;;8.45;;
36827;SDS011;22766;48.042;11.192;2023-05-23T03:33:56;12.57;;;8.00;;
36827;SDS011;22766;48.042;11.192;2023-05-23T03:36:22;14.30;;;8.15;;
36827;SDS011;22766;48.042;11.192;2023-05-23T03:38:51;14.43;;;8.70;;
36827;SDS011;22766;48.042;11.192;2023-05-23T03:41:18;13.18;;;8.07;;
36827;SDS011;22766;48.042;11.192;2023-05-23T03:43:45;12.48;;;8.75;;
36827;SDS011;22766;48.042;11.192;2023-05-23T03:46:12;12.43;;;8.15;;
36827;SDS011;22766;48.042;11.192;2023-05-23T03:48:39;16.38;;;8.27;;
36827;SDS011;22766;48.042;11.192;2023-05-23T03:51:07;16.13;;;9.32;;
36827;SDS011;22766;48.042;11.192;2023-05-23T03:53:34;12.80;;;8.40;;
36827;SDS011;22766;48.042;11.192;2023-05-23T03:56:03;15.35;;;8.77;;
36827;SDS011;22766;48.042;11.192;2023-05-23T03:58:30;19.10;;;9.30;;
36827;SDS011;22766;48.042;11.192;2023-05-23T04:01:00;14.05;;;8.70;;
36827;SDS011;22766;48.042;11.192;2023-05-23T04:03:29;15.45;;;9.38;;
36827;SDS011;22766;48.042;11.192;2023-05-23T04:05:58;13.85;;;8.80;;
36827;SDS011;22766;48.042;11.192;2023-05-23T04:08:26;18.52;;;10.43;;
36827;SDS011;22766;48.042;11.192;2023-05-23T04:10:55;12.55;;;8.15;;
36827;SDS011;22766;48.042;11.192;2023-05-23T04:13:24;15.15;;;9.05;;
36827;SDS011;22766;48.042;11.192;2023-05-23T04:15:51;18.52;;;9.65;;
36827;SDS011;22766;48.042;11.192;2023-05-23T04:18:22;16.50;;;10.35;;
36827;SDS011;22766;48.042;11.192;2023-05-23T04:20:49;17.38;;;10.27;;
36827;SDS011;22766;48.042;11.192;2023-05-23T04:23:16;16.58;;;9.85;;
36827;SDS011;22766;48.042;11.192;2023-05-23T04:25:46;19.63;;;10.18;;
36827;SDS011;22766;48.042;11.192;2023-05-23T04:28:20;14.48;;;9.45;;
36827;SDS011;22766;48.042;11.192;2023-05-23T04:30:47;17.80;;;10.25;;
36827;SDS011;22766;48.042;11.192;2023-05-23T04:33:20;15.73;;;9.63;;
36827;SDS011;22766;48.042;11.192;2023-05-23T04:35:47;18.90;;;10.48;;
36827;SDS011;22766;48.042;11.192;2023-05-23T04:38:14;17.88;;;10.43;;
36827;SDS011;22766;48.042;11.192;2023-05-23T04:40:42;18.35;;;10.05;;
36827;SDS011;22766;48.042;11.192;2023-05-23T04:43:20;19.08;;;10.55;;
36827;SDS011;22766;48.042;11.192;2023-05-23T04:45:52;16.40;;;10.15;;
36827;SDS011;22766;48.042;11.192;2023-05-23T04:48:33;17.63;;;9.13;;
36827;SDS011;22766;48.042;11.192;2023-05-23T04:51:02;17.73;;;11.15;;
36827;SDS011;22766;48.042;11.192;2023-05-23T04:53:36;16.80;;;10.50;;
36827;SDS011;22766;48.042;11.192;2023-05-23T04:56:02;18.10;;;10.98;;
36827;SDS011;22766;48.042;11.192;2023-05-23T04:58:30;15.98;;;9.65;;
36827;SDS011;22766;48.042;11.192;2023-05-23T05:01:00;17.85;;;10.45;;
36827;SDS011;22766;48.042;11.192;2023-05-23T05:03:27;16.10;;;9.95;;
36827;SDS011;22766;48.042;11.192;2023-05-23T05:05:55;14.82;;;9.93;;
36827;SDS011;22766;48.042;11.192;2023-05-23T05:08:22;16.08;;;9.57;;
36827;SDS011;22766;48.042;11.192;2023-05-23T05:10:49;20.23;;;10.80;;
36827;SDS011;22766;48.042;11.192;2023-05-23T05:13:17;16.73;;;9.80;;
36827;SDS011;22766;48.042;11.192;2023-05-23T05:15:48;17.15;;;10.35;;
36827;SDS011;22766;48.042;11.192;2023-05-23T05:18:15;18.02;;;11.05;;
36827;SDS011;22766;48.042;11.192;2023-05-23T05:20:43;18.50;;;10.27;;
36827;SDS011;22766;48.042;11.192;2023-05-23T05:23:10;15.88;;;9.20;;
36827;SDS011;22766;48.042;11.192;2023-05-23T05:25:37;19.25;;;9.75;;
36827;SDS011;22766;48.042;11.192;2023-05-23T05:28:04;15.63;;;9.32;;
36827;SDS011;22766;48.042;11.192;2023-05-23T05:30:36;19.67;;;10.40;;
36827;SDS011;22766;48.042;11.192;2023-05-23T05:33:03;17.17;;;9.18;;
36827;SDS011;22766;48.042;11.192;2023-05-23T05:35:32;16.00;;;10.40;;
36827;SDS011;22766;48.042;11.192;2023-05-23T05:38:04;16.30;;;11.00;;
36827;SDS011;22766;48.042;11.192;2023-05-23T05:40:32;15.27;;;9.35;;
36827;SDS011;22766;48.042;11.192;2023-05-23T05:43:00;16.52;;;10.13;;
36827;SDS011;22766;48.042;11.192;2023-05-23T05:45:26;14.80;;;9.15;;
36827;SDS011;22766;48.042;11.192;2023-05-23T05:47:53;17.10;;;9.20;;
36827;SDS011;22766;48.042;11.192;2023-05-23T05:50:22;15.35;;;8.98;;
36827;SDS011;22766;48.042;11.192;2023-05-23T05:52:49;16.35;;;9.30;;
36827;SDS011;22766;48.042;11.192;2023-05-23T05:55:16;16.65;;;10.05;;
36827;SDS011;22766;48.042;11.192;2023-05-23T05:57:49;14.73;;;8.68;;
36827;SDS011;22766;48.042;11.192;2023-05-23T06:00:15;17.27;;;10.57;;
36827;SDS011;22766;48.042;11.192;2023-05-23T06:02:44;16.52;;;9.77;;
36827;SDS011;22766;48.042;11.192;2023-05-23T06:05:18;16.45;;;10.05;;
36827;SDS011;22766;48.042;11.192;2023-05-23T06:07:47;19.77;;;10.38;;
36827;SDS011;22766;48.042;11.192;2023-05-23T06:10:15;17.38;;;9.90;;
36827;SDS011;22766;48.042;11.192;2023-05-23T06:12:42;18.25;;;10.07;;
36827;SDS011;22766;48.042;11.192;2023-05-23T06:15:11;15.93;;;9.77;;
36827;SDS011;22766;48.042;11.192;2023-05-23T06:17:40;17.52;;;10.02;;
36827;SDS011;22766;48.042;11.192;2023-05-23T06:20:07;19.00;;;9.20;;
36827;SDS011;22766;48.042;11.192;2023-05-23T06:22:37;17.77;;;10.10;;
36827;SDS011;22766;48.042;11.192;2023-05-23T06:25:04;15.93;;;10.15;;
36827;SDS011;22766;48.042;11.192;2023-05-23T06:27:32;16.60;;;9.70;;
36827;SDS011;22766;48.042;11.192;2023-05-23T06:30:01;19.58;;;10.02;;
36827;SDS011;22766;48.042;11.192;2023-05-23T06:32:28;17.65;;;10.30;;
36827;SDS011;22766;48.042;11.192;2023-05-23T06:34:56;16.30;;;10.05;;
36827;SDS011;22766;48.042;11.192;2023-05-23T06:37:23;19.15;;;10.98;;
36827;SDS011;22766;48.042;11.192;2023-05-23T06:39:50;20.73;;;10.90;;
36827;SDS011;22766;48.042;11.192;2023-05-23T06:42:17;18.42;;;11.05;;
36827;SDS011;22766;48.042;11.192;2023-05-23T06:45:00;18.70;;;11.73;;
36827;SDS011;22766;48.042;11.192;2023-05-23T06:47:26;22.25;;;11.90;;
36827;SDS011;22766;48.042;11.192;2023-05-23T06:49:53;18.95;;;12.07;;
36827;SDS011;22766;48.042;11.192;2023-05-23T06:52:20;21.08;;;11.55;;
36827;SDS011;22766;48.042;11.192;2023-05-23T06:54:47;25.63;;;12.88;;
36827;SDS011;22766;48.042;11.192;2023-05-23T06:57:14;20.88;;;12.65;;
36827;SDS011;22766;48.042;11.192;2023-05-23T06:59:41;21.55;;;12.73;;
36827;SDS011;22766;48.042;11.192;2023-05-23T07:02:09;24.05;;;13.27;;
36827;SDS011;22766;48.042;11.192;2023-05-23T07:04:36;22.17;;;13.85;;
36827;SDS011;22766;48.042;11.192;2023-05-23T07:07:09;24.58;;;13.45;;
36827;SDS011;22766;48.042;11.192;2023-05-23T07:09:36;23.75;;;13.13;;
36827;SDS011;22766;48.042;11.192;2023-05-23T07:12:11;21.95;;;12.02;;
36827;SDS011;22766;48.042;11.192;2023-05-23T07:14:40;23.08;;;12.77;;
36827;SDS011;22766;48.042;11.192;2023-05-23T07:17:08;23.17;;;12.68;;
36827;SDS011;22766;48.042;11.192;2023-05-23T07:19:37;25.42;;;12.85;;
36827;SDS011;22766;48.042;11.192;2023-05-23T07:22:04;23.60;;;13.13;;
36827;SDS011;22766;48.042;11.192;2023-05-23T07:24:33;20.75;;;11.90;;
36827;SDS011;22766;48.042;11.192;2023-05-23T07:27:00;26.90;;;14.52;;
36827;SDS011;22766;48.042;11.192;2023-05-23T07:29:28;21.98;;;12.52;;
36827;SDS011;22766;48.042;11.192;2023-05-23T07:31:55;21.60;;;11.50;;
36827;SDS011;22766;48.042;11.192;2023-05-23T07:34:22;19.33;;;11.57;;
36827;SDS011;22766;48.042;11.192;2023-05-23T07:36:53;21.80;;;12.90;;
36827;SDS011;22766;48.042;11.192;2023-05-23T07:39:21;18.67;;;11.38;;
36827;SDS011;22766;48.042;11.192;2023-05-23T07:41:50;23.83;;;14.18;;
36827;SDS011;22766;48.042;11.192;2023-05-23T07:44:18;20.52;;;12.60;;
36827;SDS011;22766;48.042;11.192;2023-05-23T07:46:50;22.65;;;13.30;;
36827;SDS011;22766;48.042;11.192;2023-05-23T07:49:17;23.00;;;13.18;;
36827;SDS011;22766;48.042;11.192;2023-05-23T07:51:44;23.73;;;13.85;;
36827;SDS011;22766;48.042;11.192;2023-05-23T07:54:11;21.10;;;13.10;;
36827;SDS011;22766;48.042;11.192;2023-05-23T07:56:43;26.15;;;13.23;;
36827;SDS011;22766;48.042;11.192;2023-05-23T07:59:11;22.10;;;11.73;;
36827;SDS011;22766;48.042;11.192;2023-05-23T08:01:39;21.63;;;12.48;;
36827;SDS011;22766;48.042;11.192;2023-05-23T08:04:11;28.88;;;14.55;;
36827;SDS011;22766;48.042;11.192;2023-05-23T08:06:52;25.83;;;12.83;;
36827;SDS011;22766;48.042;11.192;2023-05-23T08:09:47;24.52;;;12.82;;
36827;SDS011;22766;48.042;11.192;2023-05-23T08:12:17;22.55;;;12.85;;
36827;SDS011;22766;48.042;11.192;2023-05-23T08:14:45;21.90;;;12.27;;
36827;SDS011;22766;48.042;11.192;2023-05-23T08:17:21;24.52;;;12.13;;
36827;SDS011;22766;48.042;11.192;2023-05-23T08:19:48;25.58;;;13.20;;
36827;SDS011;22766;48.042;11.192;2023-05-23T08:22:14;24.52;;;13.73;;
36827;SDS011;22766;48.042;11.192;2023-05-23T08:24:41;19.80;;;12.05;;
36827;SDS011;22766;48.042;11.192;2023-05-23T08:27:09;20.00;;;11.82;;
36827;SDS011;22766;48.042;11.192;2023-05-23T08:29:37;25.25;;;12.90;;
36827;SDS011;22766;48.042;11.192;2023-05-23T08:32:04;19.80;;;12.40;;
36827;SDS011;22766;48.042;11.192;2023-05-23T08:34:32;20.95;;;12.38;;
36827;SDS011;22766;48.042;11.192;2023-05-23T08:36:59;23.65;;;12.82;;
36827;SDS011;22766;48.042;11.192;2023-05-23T08:39:26;23.50;;;12.60;;
36827;SDS011;22766;48.042;11.192;2023-05-23T08:42:07;22.37;;;11.73;;
36827;SDS011;22766;48.042;11.192;2023-05-23T08:44:33;22.05;;;11.10;;
36827;SDS011;22766;48.042;11.192;2023-05-23T08:47:02;19.70;;;11.82;;
36827;SDS011;22766;48.042;11.192;2023-05-23T08:49:44;22.65;;;11.43;;
36827;SDS011;22766;48.042;11.192;2023-05-23T08:52:11;19.67;;;11.55;;
36827;SDS011;22766;48.042;11.192;2023-05-23T08:54:45;21.13;;;12.63;;
36827;SDS011;22766;48.042;11.192;2023-05-23T08:57:13;20.60;;;12.30;;
36827;SDS011;22766;48.042;11.192;2023-05-23T08:59:45;21.45;;;12.13;;
36827;SDS011;22766;48.042;11.192;2023-05-23T09:02:13;22.20;;;12.75;;
36827;SDS011;22766;48.042;11.192;2023-05-23T09:04:41;24.17;;;12.98;;
36827;SDS011;22766;48.042;11.192;2023-05-23T09:07:12;21.77;;;12.60;;
36827;SDS011;22766;48.042;11.192;2023-05-23T09:09:43;22.00;;;11.95;;
36827;SDS011;22766;48.042;11.192;2023-05-23T09:12:12;20.90;;;11.45;;
36827;SDS011;22766;48.042;11.192;2023-05-23T09:14:43;19.38;;;10.60;;
36827;SDS011;22766;48.042;11.192;2023-05-23T09:17:14;21.17;;;12.52;;
36827;SDS011;22766;48.042;11.192;2023-05-23T09:19:44;18.38;;;11.18;;
36827;SDS011;22766;48.042;11.192;2023-05-23T09:22:36;19.38;;;12.18;;
36827;SDS011;22766;48.042;11.192;2023-05-23T09:25:10;22.63;;;12.05;;
36827;SDS011;22766;48.042;11.192;2023-05-23T09:27:38;22.13;;;12.85;;
36827;SDS011;22766;48.042;11.192;2023-05-23T09:30:06;18.80;;;11.95;;
36827;SDS011;22766;48.042;11.192;2023-05-23T09:32:34;22.05;;;12.15;;
36827;SDS011;22766;48.042;11.192;2023-05-23T09:35:03;18.40;;;11.60;;
36827;SDS011;22766;48.042;11.192;2023-05-23T09:37:31;17.48;;;9.95;;
36827;SDS011;22766;48.042;11.192;2023-05-23T09:40:02;16.85;;;11.75;;
36827;SDS011;22766;48.042;11.192;2023-05-23T09:42:42;23.40;;;12.20;;
36827;SDS011;22766;48.042;11.192;2023-05-23T09:45:10;20.13;;;11.25;;
36827;SDS011;22766;48.042;11.192;2023-05-23T09:47:38;18.10;;;11.48;;
36827;SDS011;22766;48.042;11.192;2023-05-23T09:50:05;22.17;;;10.77;;
36827;SDS011;22766;48.042;11.192;2023-05-23T09:52:37;21.38;;;12.48;;
36827;SDS011;22766;48.042;11.192;2023-05-23T09:55:04;18.70;;;10.52;;
36827;SDS011;22766;48.042;11.192;2023-05-23T09:57:34;19.13;;;11.57;;
36827;SDS011;22766;48.042;11.192;2023-05-23T10:00:05;21.80;;;12.07;;
36827;SDS011;22766;48.042;11.192;2023-05-23T10:05:35;20.13;;;11.55;;
36827;SDS011;22766;48.042;11.192;2023-05-23T10:08:06;19.83;;;11.98;;
36827;SDS011;22766;48.042;11.192;2023-05-23T10:13:26;20.90;;;11.98;;
36827;SDS011;22766;48.042;11.192;2023-05-23T10:15:55;19.73;;;11.07;;
36827;SDS011;22766;48.042;11.192;2023-05-23T10:18:25;21.40;;;11.88;;
36827;SDS011;22766;48.042;11.192;2023-05-23T10:20:56;23.42;;;11.95;;
36827;SDS011;22766;48.042;11.192;2023-05-23T10:23:28;27.02;;;13.93;;
36827;SDS011;22766;48.042;11.192;2023-05-23T10:25:56;27.23;;;14.20;;
36827;SDS011;22766;48.042;11.192;2023-05-23T10:28:23;23.42;;;12.18;;
36827;SDS011;22766;48.042;11.192;2023-05-23T10:30:50;25.42;;;14.70;;
36827;SDS011;22766;48.042;11.192;2023-05-23T10:33:17;23.90;;;14.05;;
36827;SDS011;22766;48.042;11.192;2023-05-23T10:44:19;22.23;;;12.82;;
36827;SDS011;22766;48.042;11.192;2023-05-23T10:49:37;19.92;;;12.02;;
36827;SDS011;22766;48.042;11.192;2023-05-23T10:52:05;17.42;;;10.73;;
36827;SDS011;22766;48.042;11.192;2023-05-23T10:54:35;25.08;;;13.02;;
36827;SDS011;22766;48.042;11.192;2023-05-23T10:57:08;21.00;;;10.80;;
36827;SDS011;22766;48.042;11.192;2023-05-23T10:59:37;18.58;;;12.30;;
36827;SDS011;22766;48.042;11.192;2023-05-23T11:02:07;23.23;;;13.18;;
36827;SDS011;22766;48.042;11.192;2023-05-23T11:04:42;17.60;;;11.88;;
36827;SDS011;22766;48.042;11.192;2023-05-23T11:07:31;20.65;;;11.98;;
36827;SDS011;22766;48.042;11.192;2023-05-23T11:10:02;19.20;;;11.60;;
36827;SDS011;22766;48.042;11.192;2023-05-23T11:12:36;16.73;;;11.32;;
36827;SDS011;22766;48.042;11.192;2023-05-23T11:15:39;18.20;;;10.65;;
36827;SDS011;22766;48.042;11.192;2023-05-23T11:17:53;19.13;;;11.70;;
36827;SDS011;22766;48.042;11.192;2023-05-23T11:20:23;17.52;;;10.23;;
36827;SDS011;22766;48.042;11.192;2023-05-23T11:22:53;14.27;;;8.57;;
36827;SDS011;22766;48.042;11.192;2023-05-23T11:25:21;13.02;;;8.77;;
36827;SDS011;22766;48.042;11.192;2023-05-23T11:28:06;15.25;;;9.50;;
36827;SDS011;22766;48.042;11.192;2023-05-23T11:30:34;11.65;;;8.52;;
36827;SDS011;22766;48.042;11.192;2023-05-23T11:33:05;13.48;;;8.02;;
36827;SDS011;22766;48.042;11.192;2023-05-23T11:35:34;13.90;;;8.57;;
36827;SDS011;22766;48.042;11.192;2023-05-23T11:38:03;12.82;;;8.75;;
36827;SDS011;22766;48.042;11.192;2023-05-23T11:40:31;19.35;;;8.43;;
36827;SDS011;22766;48.042;11.192;2023-05-23T11:43:09;12.00;;;8.13;;
36827;SDS011;22766;48.042;11.192;2023-05-23T11:45:38;11.98;;;8.07;;
36827;SDS011;22766;48.042;11.192;2023-05-23T11:48:12;11.75;;;8.15;;
36827;SDS011;22766;48.042;11.192;2023-05-23T11:55:46;10.10;;;7.65;;
36827;SDS011;22766;48.042;11.192;2023-05-23T11:58:15;10.82;;;7.68;;
36827;SDS011;22766;48.042;11.192;2023-05-23T12:00:42;11.00;;;7.20;;
36827;SDS011;22766;48.042;11.192;2023-05-23T12:03:10;10.90;;;7.60;;
36827;SDS011;22766;48.042;11.192;2023-05-23T12:05:37;11.38;;;7.30;;
36827;SDS011;22766;48.042;11.192;2023-05-23T12:08:04;9.65;;;6.32;;
36827;SDS011;22766;48.042;11.192;2023-05-23T12:10:31;9.07;;;5.88;;
36827;SDS011;22766;48.042;11.192;2023-05-23T12:12:58;10.80;;;6.65;;
36827;SDS011;22766;48.042;11.192;2023-05-23T12:15:25;9.73;;;6.15;;
36827;SDS011;22766;48.042;11.192;2023-05-23T12:17:55;8.57;;;5.93;;
36827;SDS011;22766;48.042;11.192;2023-05-23T12:20:22;9.63;;;5.88;;
36827;SDS011;22766;48.042;11.192;2023-05-23T12:22:52;10.80;;;6.32;;
36827;SDS011;22766;48.042;11.192;2023-05-23T12:25:19;11.02;;;6.65;;
36827;SDS011;22766;48.042;11.192;2023-05-23T12:27:48;9.48;;;7.00;;
36827;SDS011;22766;48.042;11.192;2023-05-23T12:30:15;11.65;;;7.10;;
36827;SDS011;22766;48.042;11.192;2023-05-23T12:32:43;11.07;;;6.95;;
36827;SDS011;22766;48.042;11.192;2023-05-23T12:35:12;11.80;;;6.95;;
36827;SDS011;22766;48.042;11.192;2023-05-23T12:37:40;11.43;;;7.53;;
36827;SDS011;22766;48.042;11.192;2023-05-23T12:40:11;14.13;;;7.70;;
36827;SDS011;22766;48.042;11.192;2023-05-23T12:42:45;10.70;;;7.38;;
36827;SDS011;22766;48.042;11.192;2023-05-23T12:45:18;14.77;;;7.95;;
36827;SDS011;22766;48.042;11.192;2023-05-23T12:47:46;12.15;;;7.57;;
36827;SDS011;22766;48.042;11.192;2023-05-23T12:50:13;11.57;;;7.45;;
36827;SDS011;22766;48.042;11.192;2023-05-23T12:52:40;13.13;;;7.38;;
36827;SDS011;22766;48.042;11.192;2023-05-23T12:55:07;10.32;;;7.15;;
36827;SDS011;22766;48.042;11.192;2023-05-23T12:57:34;9.27;;;6.70;;
36827;SDS011;22766;48.042;11.192;2023-05-23T13:00:01;13.00;;;7.80;;
36827;SDS011;22766;48.042;11.192;2023-05-23T13:02:28;11.45;;;6.85;;
36827;SDS011;22766;48.042;11.192;2023-05-23T13:04:54;15.20;;;6.55;;
36827;SDS011;22766;48.042;11.192;2023-05-23T13:07:21;11.55;;;6.15;;
36827;SDS011;22766;48.042;11.192;2023-05-23T13:09:48;11.35;;;6.55;;
36827;SDS011;22766;48.042;11.192;2023-05-23T13:12:15;10.32;;;6.25;;
36827;SDS011;22766;48.042;11.192;2023-05-23T13:14:42;10.10;;;6.90;;
36827;SDS011;22766;48.042;11.192;2023-05-23T13:17:08;12.90;;;7.93;;
36827;SDS011;22766;48.042;11.192;2023-05-23T13:19:35;8.70;;;5.90;;
36827;SDS011;22766;48.042;11.192;2023-05-23T13:22:04;7.57;;;5.75;;
36827;SDS011;22766;48.042;11.192;2023-05-23T13:24:38;10.77;;;6.85;;
36827;SDS011;22766;48.042;11.192;2023-05-23T13:27:08;10.27;;;6.88;;
36827;SDS011;22766;48.042;11.192;2023-05-23T13:29:35;12.40;;;7.22;;
36827;SDS011;22766;48.042;11.192;2023-05-23T13:32:02;8.48;;;6.05;;
36827;SDS011;22766;48.042;11.192;2023-05-23T13:34:29;10.45;;;7.00;;
36827;SDS011;22766;48.042;11.192;2023-05-23T13:36:55;8.65;;;6.32;;
36827;SDS011;22766;48.042;11.192;2023-05-23T13:39:22;9.07;;;6.63;;
36827;SDS011;22766;48.042;11.192;2023-05-23T13:41:49;11.52;;;7.05;;
36827;SDS011;22766;48.042;11.192;2023-05-23T13:44:16;9.77;;;6.38;;
36827;SDS011;22766;48.042;11.192;2023-05-23T13:46:43;8.45;;;5.97;;
36827;SDS011;22766;48.042;11.192;2023-05-23T13:49:10;9.10;;;6.35;;
36827;SDS011;22766;48.042;11.192;2023-05-23T13:51:36;13.70;;;7.28;;
36827;SDS011;22766;48.042;11.192;2023-05-23T13:54:03;8.18;;;6.25;;
36827;SDS011;22766;48.042;11.192;2023-05-23T13:56:31;12.32;;;6.88;;
36827;SDS011;22766;48.042;11.192;2023-05-23T13:58:57;9.77;;;5.72;;
36827;SDS011;22766;48.042;11.192;2023-05-23T14:01:24;11.18;;;6.35;;
36827;SDS011;22766;48.042;11.192;2023-05-23T14:03:51;12.13;;;7.50;;
36827;SDS011;22766;48.042;11.192;2023-05-23T14:06:18;9.77;;;6.43;;
36827;SDS011;22766;48.042;11.192;2023-05-23T14:08:44;9.40;;;6.18;;
36827;SDS011;22766;48.042;11.192;2023-05-23T14:11:11;10.00;;;6.75;;
36827;SDS011;22766;48.042;11.192;2023-05-23T14:13:38;11.25;;;7.40;;
36827;SDS011;22766;48.042;11.192;2023-05-23T14:16:05;10.70;;;7.65;;
36827;SDS011;22766;48.042;11.192;2023-05-23T14:18:31;10.98;;;6.70;;
36827;SDS011;22766;48.042;11.192;2023-05-23T14:20:58;10.13;;;6.95;;
36827;SDS011;22766;48.042;11.192;2023-05-23T14:23:25;11.73;;;7.63;;
36827;SDS011;22766;48.042;11.192;2023-05-23T14:25:52;10.75;;;6.55;;
36827;SDS011;22766;48.042;11.192;2023-05-23T14:28:18;9.48;;;6.18;;
36827;SDS011;22766;48.042;11.192;2023-05-23T14:30:45;10.55;;;6.97;;
36827;SDS011;22766;48.042;11.192;2023-05-23T14:33:12;12.50;;;7.30;;
36827;SDS011;22766;48.042;11.192;2023-05-23T14:35:40;8.63;;;6.45;;
36827;SDS011;22766;48.042;11.192;2023-05-23T14:38:08;12.95;;;7.43;;
36827;SDS011;22766;48.042;11.192;2023-05-23T14:40:35;11.43;;;7.10;;
36827;SDS011;22766;48.042;11.192;2023-05-23T14:43:01;9.82;;;6.68;;
36827;SDS011;22766;48.042;11.192;2023-05-23T14:45:28;14.32;;;7.95;;
36827;SDS011;22766;48.042;11.192;2023-05-23T14:47:55;10.77;;;6.30;;
36827;SDS011;22766;48.042;11.192;2023-05-23T14:50:22;9.00;;;6.78;;
36827;SDS011;22766;48.042;11.192;2023-05-23T14:52:48;10.60;;;6.80;;
36827;SDS011;22766;48.042;11.192;2023-05-23T14:55:15;13.65;;;6.10;;
36827;SDS011;22766;48.042;11.192;2023-05-23T14:57:42;8.90;;;6.35;;